createdAt,value
2023-03-23T00:00:52.349Z,31.60
2023-03-23T00:03:24.687Z,31.58
2023-03-23T00:05:55.704Z,31.57
2023-03-23T00:08:25.969Z,31.58
2023-03-23T00:11:00.214Z,31.57
2023-03-23T00:13:32.492Z,31.59
2023-03-23T00:16:04.048Z,31.59
2023-03-23T00:18:34.735Z,31.60
2023-03-23T00:21:07.303Z,31.61
2023-03-23T00:23:37.618Z,31.59
2023-03-23T00:26:08.099Z,31.60
2023-03-23T00:28:38.502Z,31.60
2023-03-23T00:31:10.859Z,31.56
2023-03-23T00:33:44.060Z,31.57
2023-03-23T00:36:15.654Z,31.56
2023-03-23T00:38:47.713Z,31.57
2023-03-23T00:41:18.786Z,31.59
2023-03-23T00:43:49.031Z,31.57
2023-03-23T00:46:19.715Z,31.56
2023-03-23T00:48:50.824Z,31.55
2023-03-23T00:51:22.954Z,31.57
2023-03-23T00:53:53.640Z,31.57
2023-03-23T00:56:24.049Z,31.55
2023-03-23T00:58:54.120Z,31.55
2023-03-23T01:01:24.563Z,31.56
2023-03-23T01:03:56.640Z,31.57
2023-03-23T01:06:26.833Z,31.57
2023-03-23T01:08:57.310Z,31.58
2023-03-23T01:11:28.752Z,31.57
2023-03-23T01:13:59.475Z,31.58
2023-03-23T01:16:29.880Z,31.59
2023-03-23T01:19:00.325Z,31.59
2023-03-23T01:21:32.594Z,31.59
2023-03-23T01:24:02.965Z,31.58
2023-03-23T01:26:33.756Z,31.58
2023-03-23T01:29:04.213Z,31.61
2023-03-23T01:31:35.070Z,31.62
2023-03-23T01:34:05.700Z,31.59
2023-03-23T01:36:36.417Z,31.62
2023-03-23T01:39:08.944Z,31.59
2023-03-23T01:41:39.612Z,31.64
2023-03-23T01:44:28.056Z,31.65
2023-03-23T01:47:16.721Z,31.65
2023-03-23T01:49:52.826Z,31.68
2023-03-23T01:52:29.209Z,31.70
2023-03-23T01:55:06.926Z,31.73
2023-03-23T01:57:38.024Z,31.76
2023-03-23T02:00:18.250Z,31.72
2023-03-23T02:02:56.489Z,31.77
2023-03-23T02:05:41.447Z,31.77
2023-03-23T02:08:21.780Z,31.78
2023-03-23T02:10:52.775Z,31.78
2023-03-23T02:13:24.000Z,31.81
2023-03-23T02:15:57.378Z,31.80
2023-03-23T02:18:57.413Z,31.82
2023-03-23T02:21:28.259Z,31.82
2023-03-23T02:24:36.901Z,31.82
2023-03-23T02:27:07.476Z,31.83
2023-03-23T02:29:49.364Z,31.84
2023-03-23T02:32:42.947Z,31.87
2023-03-23T02:35:36.885Z,31.87
2023-03-23T02:38:21.717Z,31.87
2023-03-23T02:40:54.237Z,31.86
2023-03-23T02:43:28.183Z,31.90
2023-03-23T02:46:10.425Z,31.91
2023-03-23T02:48:43.434Z,31.89
2023-03-23T02:54:02.958Z,31.93
2023-03-23T02:57:40.413Z,31.92
2023-03-23T03:01:24.830Z,31.93
2023-03-23T03:04:20.675Z,31.93
2023-03-23T03:07:06.008Z,31.93
2023-03-23T03:10:03.476Z,31.94
2023-03-23T03:12:48.761Z,31.94
2023-03-23T03:15:31.770Z,31.96
2023-03-23T03:18:31.677Z,31.95
2023-03-23T03:21:23.639Z,31.94
2023-03-23T03:24:14.809Z,31.95
2023-03-23T03:26:50.849Z,31.97
2023-03-23T03:32:34.421Z,31.94
2023-03-23T03:35:07.118Z,31.97
2023-03-23T03:37:40.661Z,31.99
2023-03-23T03:40:15.484Z,31.98
2023-03-23T03:43:05.004Z,31.99
2023-03-23T03:45:53.929Z,31.97
2023-03-23T03:51:10.221Z,32.01
2023-03-23T03:53:44.837Z,32.02
2023-03-23T03:56:35.660Z,32.04
2023-03-23T03:59:24.280Z,32.05
2023-03-23T04:02:16.991Z,32.07
2023-03-23T04:05:06.883Z,32.09
2023-03-23T04:10:32.637Z,32.10
2023-03-23T04:13:22.170Z,32.12
2023-03-23T04:16:14.011Z,32.15
2023-03-23T04:19:02.626Z,32.16
2023-03-23T04:21:52.382Z,32.17
2023-03-23T04:24:56.341Z,32.18
2023-03-23T04:27:21.002Z,32.18
2023-03-23T04:29:53.088Z,32.19
2023-03-23T04:32:46.676Z,32.18
2023-03-23T04:35:35.350Z,32.21
2023-03-23T04:38:23.666Z,32.20
2023-03-23T04:41:12.231Z,32.20
2023-03-23T04:43:49.242Z,32.20
2023-03-23T04:46:42.645Z,32.22
2023-03-23T04:49:17.631Z,32.23
2023-03-23T04:52:09.730Z,32.24
2023-03-23T04:54:47.986Z,32.25
2023-03-23T04:57:19.332Z,32.28
2023-03-23T05:00:16.277Z,32.29
2023-03-23T05:03:04.944Z,32.28
2023-03-23T05:05:38.173Z,32.30
2023-03-23T05:08:30.243Z,32.31
2023-03-23T05:11:18.907Z,32.34
2023-03-23T05:13:49.529Z,32.34
2023-03-23T05:16:39.961Z,32.34
2023-03-23T05:19:17.387Z,32.37
2023-03-23T05:21:49.268Z,32.34
2023-03-23T05:24:21.073Z,32.40
2023-03-23T05:27:11.353Z,32.38
2023-03-23T05:29:46.835Z,32.39
2023-03-23T05:32:17.885Z,32.42
2023-03-23T05:34:49.878Z,32.40
2023-03-23T05:37:19.892Z,32.42
2023-03-23T05:39:56.826Z,32.46
2023-03-23T05:42:48.936Z,32.47
2023-03-23T05:45:38.367Z,32.48
2023-03-23T05:48:09.391Z,32.52
2023-03-23T05:50:39.778Z,32.52
2023-03-23T05:53:11.345Z,32.52
2023-03-23T05:55:43.919Z,32.53
2023-03-23T05:58:25.408Z,32.57
2023-03-23T06:00:57.078Z,32.57
2023-03-23T06:03:31.826Z,32.57
2023-03-23T06:06:08.668Z,32.60
2023-03-23T06:08:53.628Z,32.61
2023-03-23T06:11:37.496Z,32.61
2023-03-23T06:14:27.249Z,32.60
2023-03-23T06:16:58.647Z,32.61
2023-03-23T06:19:30.302Z,32.62
2023-03-23T06:22:18.893Z,32.62
2023-03-23T06:25:10.627Z,32.63
2023-03-23T06:27:44.638Z,32.64
2023-03-23T06:30:18.587Z,32.67
2023-03-23T06:32:51.219Z,32.68
2023-03-23T06:35:32.286Z,32.71
2023-03-23T06:38:20.705Z,32.70
2023-03-23T06:40:58.898Z,32.75
2023-03-23T06:58:22.898Z,32.79
2023-03-23T07:01:00.147Z,32.82
2023-03-23T07:09:18.696Z,32.80
2023-03-23T07:11:50.918Z,32.83
2023-03-23T07:17:16.414Z,32.85
2023-03-23T07:20:08.581Z,32.84
2023-03-23T07:22:39.239Z,32.86
2023-03-23T07:28:17.466Z,32.88
2023-03-23T07:31:05.933Z,32.92
2023-03-23T07:33:36.719Z,32.90
2023-03-23T07:36:25.441Z,32.92
2023-03-23T07:39:13.949Z,32.91
2023-03-23T07:42:02.497Z,32.90
2023-03-23T07:44:45.721Z,32.92
2023-03-23T07:47:17.423Z,32.91
2023-03-23T07:49:51.002Z,32.92
2023-03-23T07:52:40.160Z,32.92
2023-03-23T07:55:20.644Z,32.93
2023-03-23T07:58:04.493Z,32.94
2023-03-23T08:00:36.316Z,32.95
2023-03-23T08:03:25.070Z,32.98
2023-03-23T08:06:13.711Z,32.98
2023-03-23T08:09:03.747Z,32.99
2023-03-23T08:11:52.488Z,33.00
2023-03-23T08:14:55.898Z,33.02
2023-03-23T08:20:45.327Z,33.05
2023-03-23T08:23:36.098Z,33.04
2023-03-23T08:26:25.591Z,33.03
2023-03-23T08:29:14.650Z,33.03
2023-03-23T08:32:03.018Z,33.05
2023-03-23T08:34:59.566Z,33.04
2023-03-23T08:37:48.988Z,33.03
2023-03-23T08:40:40.253Z,33.04
2023-03-23T08:43:36.407Z,33.03
2023-03-23T08:46:35.648Z,33.06
2023-03-23T08:49:19.527Z,33.07
2023-03-23T08:52:06.956Z,33.07
2023-03-23T08:54:54.955Z,33.08
2023-03-23T08:57:50.573Z,33.10
2023-03-23T09:00:34.052Z,33.10
2023-03-23T09:03:22.963Z,33.10
2023-03-23T09:06:14.529Z,33.11
2023-03-23T09:08:48.966Z,33.12
2023-03-23T09:11:19.534Z,33.09
2023-03-23T09:14:09.349Z,33.10
2023-03-23T09:16:39.668Z,33.10
2023-03-23T09:19:12.369Z,33.09
2023-03-23T09:22:00.752Z,33.09
2023-03-23T09:24:31.321Z,33.08
2023-03-23T09:27:02.163Z,33.10
2023-03-23T09:29:32.528Z,33.08
2023-03-23T09:32:03.470Z,33.09
2023-03-23T09:37:20.270Z,33.12
2023-03-23T09:40:14.632Z,33.13
2023-03-23T09:43:02.784Z,33.15
2023-03-23T09:45:43.338Z,33.14
2023-03-23T09:48:37.229Z,33.15
2023-03-23T09:54:38.254Z,33.14
2023-03-23T09:57:18.359Z,33.14
2023-03-23T10:00:27.651Z,33.12
2023-03-23T10:03:29.688Z,33.13
2023-03-23T10:06:00.150Z,33.10
2023-03-23T10:08:58.684Z,33.08
2023-03-23T10:11:44.166Z,33.08
2023-03-23T10:14:32.290Z,33.09
2023-03-23T10:20:40.979Z,33.08
2023-03-23T10:23:56.861Z,33.08
2023-03-23T10:27:00.418Z,33.09
2023-03-23T10:29:35.775Z,33.07
2023-03-23T10:35:37.870Z,33.07
2023-03-23T10:38:28.158Z,33.05
2023-03-23T10:41:22.491Z,33.06
2023-03-23T10:43:53.210Z,33.05
2023-03-23T10:46:48.134Z,33.03
2023-03-23T10:49:27.376Z,33.03
2023-03-23T10:55:21.119Z,33.00
2023-03-23T10:58:07.454Z,33.02
2023-03-23T11:00:50.830Z,33.02
2023-03-23T11:03:29.788Z,33.02
2023-03-23T11:06:03.288Z,33.01
2023-03-23T11:08:38.017Z,33.02
2023-03-23T11:11:13.556Z,33.02
2023-03-23T11:13:47.836Z,33.01
2023-03-23T11:16:38.938Z,33.02
2023-03-23T11:19:25.869Z,33.02
2023-03-23T11:22:26.986Z,33.02
2023-03-23T11:25:18.198Z,33.01
2023-03-23T11:27:49.620Z,33.01
2023-03-23T11:30:30.808Z,33.02
2023-03-23T11:33:06.365Z,33.02
2023-03-23T11:35:36.857Z,33.02
2023-03-23T11:38:09.724Z,33.01
2023-03-23T11:41:00.547Z,33.00
2023-03-23T11:43:30.946Z,33.01
2023-03-23T11:46:48.198Z,33.00
2023-03-23T11:52:58.885Z,33.02
2023-03-23T11:55:35.651Z,33.01
2023-03-23T11:58:15.758Z,33.02
2023-03-23T12:00:51.965Z,33.00
2023-03-23T12:03:50.032Z,33.00
2023-03-23T12:06:34.728Z,33.01
2023-03-23T12:09:50.369Z,33.02
2023-03-23T12:12:34.189Z,33.00
2023-03-23T12:15:29.895Z,33.00
2023-03-23T12:18:20.338Z,32.99
2023-03-23T12:20:56.627Z,32.99
2023-03-23T12:23:34.233Z,32.97
2023-03-23T12:26:49.783Z,32.98
2023-03-23T12:29:35.347Z,32.95
2023-03-23T12:32:36.957Z,32.95
2023-03-23T12:35:29.800Z,32.94
2023-03-23T12:38:45.717Z,32.94
2023-03-23T12:41:22.311Z,32.97
2023-03-23T12:44:02.520Z,32.96
2023-03-23T12:46:45.888Z,32.96
2023-03-23T12:49:25.983Z,32.97
2023-03-23T12:52:39.315Z,32.96
2023-03-23T12:55:40.845Z,32.96
2023-03-23T12:58:20.358Z,32.95
2023-03-23T13:01:06.397Z,32.94
2023-03-23T13:04:11.591Z,32.92
2023-03-23T13:06:50.488Z,32.93
2023-03-23T13:09:52.137Z,32.92
2023-03-23T13:12:24.243Z,32.92
2023-03-23T13:15:28.023Z,32.90
2023-03-23T13:18:12.789Z,32.86
2023-03-23T13:21:15.055Z,32.85
2023-03-23T13:23:57.146Z,32.85
2023-03-23T13:26:28.423Z,32.82
2023-03-23T13:29:21.851Z,32.79
2023-03-23T13:31:53.504Z,32.84
2023-03-23T13:34:28.675Z,32.82
2023-03-23T13:37:08.168Z,32.85
2023-03-23T13:39:52.461Z,32.85
2023-03-23T13:42:26.225Z,32.79
2023-03-23T13:44:56.626Z,32.75
2023-03-23T13:47:27.233Z,32.69
2023-03-23T13:50:00.533Z,32.60
2023-03-23T13:52:53.109Z,32.61
2023-03-23T13:55:46.597Z,32.58
2023-03-23T13:58:27.364Z,32.55
2023-03-23T14:01:19.775Z,32.61
2023-03-23T14:03:56.146Z,32.67
2023-03-23T14:06:30.306Z,32.78
2023-03-23T14:09:40.283Z,32.61
2023-03-23T14:12:23.329Z,32.63
2023-03-23T14:15:33.375Z,32.53
2023-03-23T14:18:07.610Z,32.63
2023-03-23T14:20:43.406Z,32.50
2023-03-23T14:23:21.494Z,32.42
2023-03-23T14:26:21.655Z,32.41
2023-03-23T14:28:57.020Z,32.41
2023-03-23T14:31:30.444Z,32.36
2023-03-23T14:34:32.709Z,32.30
2023-03-23T14:37:21.446Z,32.33
2023-03-23T14:40:15.774Z,32.36
2023-03-23T14:42:46.420Z,32.38
2023-03-23T14:45:20.464Z,32.38
2023-03-23T14:47:58.081Z,32.41
2023-03-23T14:50:57.962Z,32.40
2023-03-23T14:53:46.856Z,32.62
2023-03-23T14:56:20.103Z,32.65
2023-03-23T14:58:52.191Z,32.63
2023-03-23T15:04:23.586Z,32.57
2023-03-23T15:07:13.594Z,32.60
2023-03-23T15:09:47.465Z,32.63
2023-03-23T15:12:29.882Z,32.66
2023-03-23T15:15:04.982Z,32.69
2023-03-23T15:20:47.414Z,32.72
2023-03-23T15:23:36.673Z,32.62
2023-03-23T15:26:28.623Z,32.57
2023-03-23T15:29:26.924Z,32.55
2023-03-23T15:31:59.006Z,32.53
2023-03-23T15:34:44.250Z,32.52
2023-03-23T15:37:35.305Z,32.51
2023-03-23T15:40:26.963Z,32.50
2023-03-23T15:43:39.845Z,32.50
2023-03-23T15:46:14.067Z,32.51
2023-03-23T15:48:51.865Z,32.50
2023-03-23T15:54:27.193Z,32.48
2023-03-23T15:57:15.746Z,32.48
2023-03-23T15:59:46.086Z,32.48
2023-03-23T16:02:25.126Z,32.48
2023-03-23T16:05:15.932Z,32.46
2023-03-23T16:07:46.304Z,32.47
2023-03-23T16:10:24.949Z,32.46
2023-03-23T16:12:55.475Z,32.44
2023-03-23T16:15:25.833Z,32.45
2023-03-23T16:17:56.212Z,32.45
2023-03-23T16:20:27.746Z,32.43
2023-03-23T16:22:58.308Z,32.41
2023-03-23T16:25:28.819Z,32.41
2023-03-23T16:28:18.509Z,32.40
2023-03-23T16:30:49.370Z,32.40
2023-03-23T16:33:19.814Z,32.41
2023-03-23T16:35:50.458Z,32.39
2023-03-23T16:38:21.378Z,32.38
2023-03-23T16:40:52.009Z,32.37
2023-03-23T16:43:23.522Z,32.39
2023-03-23T16:45:58.998Z,32.35
2023-03-23T16:51:15.054Z,32.36
2023-03-23T16:53:45.566Z,32.35
2023-03-23T16:56:36.943Z,32.34
2023-03-23T16:59:07.842Z,32.32
2023-03-23T17:01:38.459Z,32.31
2023-03-23T17:04:09.371Z,32.32
2023-03-23T17:06:59.808Z,32.33
2023-03-23T17:09:51.487Z,32.35
2023-03-23T17:12:22.550Z,32.31
2023-03-23T17:14:52.968Z,32.31
2023-03-23T17:17:23.354Z,32.31
2023-03-23T17:19:54.365Z,32.35
2023-03-23T17:22:25.404Z,32.32
2023-03-23T17:24:59.323Z,32.32
2023-03-23T17:27:30.113Z,32.32
2023-03-23T17:30:00.618Z,32.30
2023-03-23T17:32:34.284Z,32.30
2023-03-23T17:35:04.905Z,32.30
2023-03-23T17:37:39.366Z,32.28
2023-03-23T17:40:12.708Z,32.29
2023-03-23T17:43:00.862Z,32.28
2023-03-23T17:45:31.724Z,32.27
2023-03-23T17:48:02.077Z,32.26
2023-03-23T17:50:51.994Z,32.27
2023-03-23T17:56:26.386Z,32.26
2023-03-23T17:58:56.864Z,32.25
2023-03-23T18:01:27.749Z,32.24
2023-03-23T18:03:58.172Z,32.23
2023-03-23T18:06:28.742Z,32.23
2023-03-23T18:08:59.050Z,32.21
2023-03-23T18:11:30.287Z,32.23
2023-03-23T18:14:18.804Z,32.24
2023-03-23T18:16:49.721Z,32.24
2023-03-23T18:19:20.065Z,32.25
2023-03-23T18:21:50.336Z,32.22
2023-03-23T18:24:20.488Z,32.22
2023-03-23T18:26:50.923Z,32.21
2023-03-23T18:29:21.339Z,32.22
2023-03-23T18:31:51.610Z,32.21
2023-03-23T18:34:21.939Z,32.22
2023-03-23T18:36:52.211Z,32.18
2023-03-23T18:39:22.530Z,32.17
2023-03-23T18:41:52.900Z,32.19
2023-03-23T18:44:24.966Z,32.17
2023-03-23T18:46:55.368Z,32.16
2023-03-23T18:49:26.192Z,32.15
2023-03-23T18:52:14.423Z,32.16
2023-03-23T18:54:47.600Z,32.13
2023-03-23T18:57:20.411Z,32.14
2023-03-23T18:59:50.839Z,32.14
2023-03-23T19:02:22.626Z,32.12
2023-03-23T19:04:53.634Z,32.14
2023-03-23T19:07:24.065Z,32.13
2023-03-23T19:09:54.230Z,32.14
2023-03-23T19:12:25.559Z,32.14
2023-03-23T19:15:13.919Z,32.13
2023-03-23T19:17:44.554Z,32.12
2023-03-23T19:20:26.938Z,32.15
2023-03-23T19:23:06.727Z,32.17
2023-03-23T19:25:37.155Z,32.18
2023-03-23T19:30:45.873Z,32.17
2023-03-23T19:33:17.093Z,32.18
2023-03-23T19:36:12.254Z,32.14
2023-03-23T19:38:43.767Z,32.10
2023-03-23T19:41:14.134Z,32.14
2023-03-23T19:43:45.759Z,32.15
2023-03-23T19:46:16.813Z,32.17
2023-03-23T19:48:47.151Z,32.15
2023-03-23T19:51:20.941Z,32.12
2023-03-23T19:54:10.315Z,32.12
2023-03-23T19:56:40.804Z,32.10
2023-03-23T19:59:13.930Z,32.13
2023-03-23T20:01:45.020Z,32.14
2023-03-23T20:07:02.793Z,32.15
2023-03-23T20:09:51.902Z,32.12
2023-03-23T20:12:22.338Z,32.13
2023-03-23T20:14:53.140Z,32.13
2023-03-23T20:17:23.427Z,32.12
2023-03-23T20:19:54.007Z,32.11
2023-03-23T20:23:02.224Z,32.13
2023-03-23T20:25:51.350Z,32.11
2023-03-23T20:28:21.711Z,32.10
2023-03-23T20:31:18.888Z,32.11
2023-03-23T20:33:42.392Z,32.13
2023-03-23T20:36:13.493Z,32.11
2023-03-23T20:38:45.080Z,32.10
2023-03-23T20:44:22.124Z,32.08
2023-03-23T20:46:54.062Z,32.08
2023-03-23T20:49:25.371Z,32.09
2023-03-23T20:51:57.179Z,32.07
2023-03-23T20:54:27.581Z,32.07
2023-03-23T20:57:00.924Z,32.08
2023-03-23T20:59:31.537Z,32.08
2023-03-23T21:02:04.630Z,32.04
2023-03-23T21:07:20.626Z,32.05
2023-03-23T21:10:09.672Z,32.04
2023-03-23T21:12:40.468Z,32.04
2023-03-23T21:15:10.937Z,32.05
2023-03-23T21:17:41.026Z,32.06
2023-03-23T21:20:13.442Z,32.05
2023-03-23T21:23:03.853Z,32.06
2023-03-23T21:25:37.015Z,32.05
2023-03-23T21:28:09.480Z,32.04
2023-03-23T21:30:39.858Z,32.06
2023-03-23T21:33:11.310Z,32.06
2023-03-23T21:35:42.196Z,32.02
2023-03-23T21:38:16.735Z,32.03
2023-03-23T21:40:47.315Z,32.04
2023-03-23T21:43:19.165Z,32.03
2023-03-23T21:45:50.534Z,32.00
2023-03-23T21:48:20.818Z,32.04
2023-03-23T21:50:52.819Z,32.02
2023-03-23T21:53:25.233Z,32.00
2023-03-23T21:56:14.563Z,32.00
2023-03-23T21:59:04.082Z,32.02
2023-03-23T22:01:34.238Z,32.00
2023-03-23T22:04:04.412Z,32.00
2023-03-23T22:06:36.741Z,32.06
2023-03-23T22:09:12.041Z,32.04
2023-03-23T22:11:43.362Z,32.01
2023-03-23T22:14:14.949Z,32.00
2023-03-23T22:16:45.579Z,32.00
2023-03-23T22:19:16.085Z,31.99
2023-03-23T22:21:46.714Z,32.03
2023-03-23T22:24:17.140Z,32.04
2023-03-23T22:26:47.791Z,32.01
2023-03-23T22:29:19.442Z,32.02
2023-03-23T22:31:50.097Z,32.03
2023-03-23T22:34:21.050Z,32.03
2023-03-23T22:36:51.560Z,32.01
2023-03-23T22:39:21.991Z,31.99
2023-03-23T22:41:52.725Z,31.98
2023-03-23T22:44:23.130Z,31.99
2023-03-23T22:46:54.687Z,32.00
2023-03-23T22:49:25.191Z,32.00
2023-03-23T22:51:55.976Z,32.03
2023-03-23T22:54:26.377Z,32.01
2023-03-23T22:56:57.947Z,32.00
2023-03-23T22:59:29.610Z,32.01
2023-03-23T23:04:08.906Z,32.02
2023-03-23T23:06:39.538Z,32.00
2023-03-23T23:09:10.379Z,32.03
2023-03-23T23:11:41.171Z,32.00
2023-03-23T23:14:11.436Z,31.96
2023-03-23T23:16:42.214Z,31.92
2023-03-23T23:19:12.342Z,31.92
2023-03-23T23:21:43.541Z,31.94
2023-03-23T23:24:13.916Z,31.92
2023-03-23T23:26:44.248Z,31.92
2023-03-23T23:29:14.802Z,31.86
2023-03-23T23:31:45.507Z,31.90
2023-03-23T23:34:16.726Z,31.87
2023-03-23T23:36:48.027Z,31.88
2023-03-23T23:39:18.639Z,31.88
2023-03-23T23:41:50.004Z,31.87
2023-03-23T23:44:20.429Z,31.89
2023-03-23T23:46:50.727Z,31.86
2023-03-23T23:49:25.302Z,31.87
2023-03-23T23:51:55.691Z,31.86
2023-03-23T23:54:31.983Z,31.84
2023-03-23T23:57:03.772Z,31.85
2023-03-23T23:59:34.190Z,31.83
